createdAt,value
2023-05-21T00:00:40.459Z,12.69
2023-05-21T00:01:40.614Z,12.68
2023-05-21T00:02:41.079Z,12.68
2023-05-21T00:03:41.028Z,12.68
2023-05-21T00:04:40.960Z,12.68
2023-05-21T00:05:41.174Z,12.67
2023-05-21T00:06:41.256Z,12.66
2023-05-21T00:07:41.393Z,12.65
2023-05-21T00:08:41.496Z,12.65
2023-05-21T00:09:41.597Z,12.64
2023-05-21T00:10:41.709Z,12.63
2023-05-21T00:11:41.830Z,12.62
2023-05-21T00:12:42.075Z,12.61
2023-05-21T00:13:42.080Z,12.60
2023-05-21T00:14:42.128Z,12.58
2023-05-21T00:15:42.234Z,12.57
2023-05-21T00:16:42.394Z,12.56
2023-05-21T00:17:42.498Z,12.54
2023-05-21T00:18:42.681Z,12.53
2023-05-21T00:19:42.719Z,12.52
2023-05-21T00:20:42.842Z,12.51
2023-05-21T00:21:42.962Z,12.49
2023-05-21T00:22:43.094Z,12.48
2023-05-21T00:23:43.255Z,12.46
2023-05-21T00:24:43.341Z,12.44
2023-05-21T00:25:43.451Z,12.42
2023-05-21T00:26:43.553Z,12.40
2023-05-21T00:27:43.690Z,12.38
2023-05-21T00:28:43.800Z,12.36
2023-05-21T00:29:44.509Z,12.35
2023-05-21T00:30:44.081Z,12.33
2023-05-21T00:31:44.270Z,12.32
2023-05-21T00:32:44.353Z,12.31
2023-05-21T00:33:44.424Z,12.30
2023-05-21T00:34:44.600Z,12.28
2023-05-21T00:35:44.676Z,12.27
2023-05-21T00:36:44.782Z,12.26
2023-05-21T00:37:44.914Z,12.25
2023-05-21T00:38:45.030Z,12.24
2023-05-21T00:39:45.161Z,12.23
2023-05-21T00:40:45.274Z,12.22
2023-05-21T00:41:45.377Z,12.22
2023-05-21T00:42:45.489Z,12.21
2023-05-21T00:43:45.599Z,12.20
2023-05-21T00:44:45.804Z,12.20
2023-05-21T00:45:45.922Z,12.19
2023-05-21T00:46:46.030Z,12.18
2023-05-21T00:47:46.165Z,12.17
2023-05-21T00:48:46.251Z,12.16
2023-05-21T00:49:46.424Z,12.15
2023-05-21T00:50:46.502Z,12.14
2023-05-21T00:51:46.635Z,12.13
2023-05-21T00:52:46.779Z,12.12
2023-05-21T00:53:46.909Z,12.10
2023-05-21T00:54:47.063Z,12.10
2023-05-21T00:55:47.232Z,12.08
2023-05-21T00:56:47.297Z,12.07
2023-05-21T00:57:47.471Z,12.06
2023-05-21T00:58:47.557Z,12.05
2023-05-21T00:59:47.687Z,12.04
2023-05-21T01:00:47.881Z,12.03
2023-05-21T01:01:48.024Z,12.03
2023-05-21T01:02:48.176Z,12.02
2023-05-21T01:03:48.241Z,12.01
2023-05-21T01:04:48.345Z,12.00
2023-05-21T01:05:48.491Z,11.99
2023-05-21T01:06:48.590Z,11.99
2023-05-21T01:07:48.757Z,11.98
2023-05-21T01:08:48.850Z,11.97
2023-05-21T01:09:48.996Z,11.96
2023-05-21T01:10:49.164Z,11.95
2023-05-21T01:11:49.277Z,11.94
2023-05-21T01:12:49.383Z,11.93
2023-05-21T01:13:49.529Z,11.92
2023-05-21T01:14:49.682Z,11.92
2023-05-21T01:15:49.846Z,11.93
2023-05-21T01:16:49.954Z,11.93
2023-05-21T01:17:50.113Z,11.94
2023-05-21T01:18:50.290Z,11.95
2023-05-21T01:19:50.456Z,11.95
2023-05-21T01:20:50.544Z,11.96
2023-05-21T01:21:50.610Z,11.97
2023-05-21T01:22:50.769Z,11.97
2023-05-21T01:23:50.881Z,11.97
2023-05-21T01:24:51.002Z,11.98
2023-05-21T01:25:51.087Z,11.99
2023-05-21T01:26:51.214Z,11.99
2023-05-21T01:27:51.332Z,12.00
2023-05-21T01:28:51.448Z,12.01
2023-05-21T01:29:51.578Z,12.01
2023-05-21T01:30:51.685Z,12.02
2023-05-21T01:31:51.791Z,12.02
2023-05-21T01:32:52.015Z,12.03
2023-05-21T01:33:52.090Z,12.03
2023-05-21T01:34:52.191Z,12.03
2023-05-21T01:35:52.336Z,12.03
2023-05-21T01:36:52.434Z,12.03
2023-05-21T01:37:52.565Z,12.04
2023-05-21T01:38:52.711Z,12.04
2023-05-21T01:39:52.818Z,12.04
2023-05-21T01:40:52.979Z,12.04
2023-05-21T01:41:53.118Z,12.04
2023-05-21T01:42:53.170Z,12.04
2023-05-21T01:43:53.273Z,12.03
2023-05-21T01:44:53.404Z,12.04
2023-05-21T01:45:53.575Z,12.04
2023-05-21T01:46:53.671Z,12.05
2023-05-21T01:47:53.800Z,12.05
2023-05-21T01:48:53.889Z,12.06
2023-05-21T01:49:54.021Z,12.06
2023-05-21T01:50:54.146Z,12.06
2023-05-21T01:51:54.266Z,12.06
2023-05-21T01:52:54.361Z,12.06
2023-05-21T01:53:54.515Z,12.06
2023-05-21T01:54:54.639Z,12.05
2023-05-21T01:55:54.819Z,12.04
2023-05-21T01:56:54.920Z,12.02
2023-05-21T01:57:55.014Z,12.01
2023-05-21T01:58:55.169Z,12.00
2023-05-21T01:59:55.272Z,11.98
2023-05-21T02:00:55.359Z,11.97
2023-05-21T02:01:55.525Z,11.96
2023-05-21T02:02:55.666Z,11.95
2023-05-21T02:03:55.804Z,11.95
2023-05-21T02:04:55.792Z,11.95
2023-05-21T02:05:55.945Z,11.95
2023-05-21T02:06:56.062Z,11.94
2023-05-21T02:07:56.170Z,11.94
2023-05-21T02:08:56.282Z,11.94
2023-05-21T02:09:56.454Z,11.94
2023-05-21T02:10:56.570Z,11.93
2023-05-21T02:11:56.696Z,11.93
2023-05-21T02:12:56.807Z,11.91
2023-05-21T02:13:56.917Z,11.90
2023-05-21T02:14:57.024Z,11.89
2023-05-21T02:15:57.175Z,11.88
2023-05-21T02:16:57.404Z,11.88
2023-05-21T02:17:57.454Z,11.88
2023-05-21T02:18:57.639Z,11.88
2023-05-21T02:19:57.647Z,11.88
2023-05-21T02:20:57.774Z,11.87
2023-05-21T02:21:57.901Z,11.87
2023-05-21T02:22:58.026Z,11.88
2023-05-21T02:23:58.140Z,11.88
2023-05-21T02:24:58.283Z,11.89
2023-05-21T02:25:58.426Z,11.89
2023-05-21T02:26:58.576Z,11.89
2023-05-21T02:27:58.654Z,11.89
2023-05-21T02:28:58.765Z,11.89
2023-05-21T02:29:58.896Z,11.88
2023-05-21T02:30:58.974Z,11.87
2023-05-21T02:31:59.095Z,11.85
2023-05-21T02:32:59.273Z,11.83
2023-05-21T02:33:59.322Z,11.82
2023-05-21T02:34:59.443Z,11.81
2023-05-21T02:35:59.540Z,11.81
2023-05-21T02:37:00.134Z,11.80
2023-05-21T02:37:59.793Z,11.80
2023-05-21T02:38:59.927Z,11.79
2023-05-21T02:40:00.075Z,11.78
2023-05-21T02:41:00.171Z,11.77
2023-05-21T02:42:00.320Z,11.76
2023-05-21T02:43:00.383Z,11.75
2023-05-21T02:44:00.481Z,11.74
2023-05-21T02:45:00.601Z,11.74
2023-05-21T02:46:00.771Z,11.73
2023-05-21T02:47:00.862Z,11.72
2023-05-21T02:48:00.978Z,11.71
2023-05-21T02:49:01.052Z,11.70
2023-05-21T02:50:01.193Z,11.70
2023-05-21T02:51:01.334Z,11.69
2023-05-21T02:52:01.454Z,11.69
2023-05-21T02:53:01.619Z,11.68
2023-05-21T02:54:01.712Z,11.67
2023-05-21T02:55:01.823Z,11.66
2023-05-21T02:56:01.906Z,11.64
2023-05-21T02:57:02.018Z,11.63
2023-05-21T02:58:02.173Z,11.60
2023-05-21T02:59:02.237Z,11.58
2023-05-21T03:00:02.353Z,11.56
2023-05-21T03:01:02.508Z,11.54
2023-05-21T03:02:02.598Z,11.52
2023-05-21T03:03:02.884Z,11.52
2023-05-21T03:04:02.887Z,11.51
2023-05-21T03:05:02.993Z,11.51
2023-05-21T03:06:03.091Z,11.50
2023-05-21T03:07:03.199Z,11.49
2023-05-21T03:08:03.379Z,11.48
2023-05-21T03:09:03.426Z,11.46
2023-05-21T03:10:03.584Z,11.45
2023-05-21T03:11:03.723Z,11.44
2023-05-21T03:12:03.785Z,11.43
2023-05-21T03:13:03.978Z,11.41
2023-05-21T03:14:04.047Z,11.40
2023-05-21T03:15:04.152Z,11.40
2023-05-21T03:16:04.252Z,11.39
2023-05-21T03:17:04.456Z,11.38
2023-05-21T03:18:04.545Z,11.38
2023-05-21T03:19:04.706Z,11.38
2023-05-21T03:20:04.780Z,11.37
2023-05-21T03:21:04.881Z,11.37
2023-05-21T03:22:04.985Z,11.37
2023-05-21T03:23:05.136Z,11.37
2023-05-21T03:24:05.235Z,11.37
2023-05-21T03:25:05.375Z,11.37
2023-05-21T03:26:05.475Z,11.37
2023-05-21T03:27:05.588Z,11.37
2023-05-21T03:28:05.751Z,11.37
2023-05-21T03:29:05.813Z,11.38
2023-05-21T03:30:06.854Z,11.38
2023-05-21T03:31:06.064Z,11.38
2023-05-21T03:32:06.221Z,11.38
2023-05-21T03:33:06.342Z,11.37
2023-05-21T03:34:06.434Z,11.37
2023-05-21T03:35:06.770Z,11.37
2023-05-21T03:36:06.715Z,11.37
2023-05-21T03:37:06.836Z,11.37
2023-05-21T03:38:06.933Z,11.36
2023-05-21T03:39:07.113Z,11.36
2023-05-21T03:40:07.158Z,11.35
2023-05-21T03:41:07.307Z,11.35
2023-05-21T03:42:07.605Z,11.35
2023-05-21T03:43:07.612Z,11.34
2023-05-21T03:44:07.853Z,11.33
2023-05-21T03:45:07.837Z,11.33
2023-05-21T03:46:08.035Z,11.32
2023-05-21T03:47:08.195Z,11.32
2023-05-21T03:48:08.325Z,11.32
2023-05-21T03:49:08.372Z,11.32
2023-05-21T03:50:08.570Z,11.32
2023-05-21T03:51:08.631Z,11.32
2023-05-21T03:52:08.744Z,11.32
2023-05-21T03:53:08.851Z,11.31
2023-05-21T03:54:09.042Z,11.31
2023-05-21T03:55:09.137Z,11.31
2023-05-21T03:56:09.256Z,11.30
2023-05-21T03:57:09.409Z,11.30
2023-05-21T03:58:09.497Z,11.29
2023-05-21T03:59:09.650Z,11.28
2023-05-21T04:00:09.783Z,11.27
2023-05-21T04:01:09.885Z,11.25
2023-05-21T04:02:10.071Z,11.24
2023-05-21T04:03:10.206Z,11.23
2023-05-21T04:04:10.306Z,11.21
2023-05-21T04:05:10.323Z,11.21
2023-05-21T04:06:10.572Z,11.21
2023-05-21T04:07:10.575Z,11.21
2023-05-21T04:08:10.696Z,11.21
2023-05-21T04:09:10.798Z,11.20
2023-05-21T04:10:10.953Z,11.20
2023-05-21T04:11:11.052Z,11.20
2023-05-21T04:12:11.192Z,11.19
2023-05-21T04:13:11.274Z,11.19
2023-05-21T04:14:11.428Z,11.20
2023-05-21T04:15:11.529Z,11.20
2023-05-21T04:16:11.740Z,11.20
2023-05-21T04:17:11.842Z,11.21
2023-05-21T04:18:11.873Z,11.21
2023-05-21T04:19:12.126Z,11.22
2023-05-21T04:20:12.157Z,11.22
2023-05-21T04:21:12.262Z,11.22
2023-05-21T04:22:12.446Z,11.22
2023-05-21T04:23:12.599Z,11.21
2023-05-21T04:24:12.707Z,11.21
2023-05-21T04:25:12.765Z,11.21
2023-05-21T04:26:12.909Z,11.22
2023-05-21T04:27:13.006Z,11.24
2023-05-21T04:28:13.192Z,11.25
2023-05-21T04:29:13.282Z,11.27
2023-05-21T04:30:13.423Z,11.29
2023-05-21T04:31:13.592Z,11.32
2023-05-21T04:32:13.624Z,11.34
2023-05-21T04:33:13.727Z,11.36
2023-05-21T04:34:13.852Z,11.37
2023-05-21T04:35:13.970Z,11.39
2023-05-21T04:36:14.077Z,11.40
2023-05-21T04:37:14.163Z,11.42
2023-05-21T04:38:14.363Z,11.44
2023-05-21T04:39:14.446Z,11.45
2023-05-21T04:40:14.555Z,11.46
2023-05-21T04:41:14.711Z,11.47
2023-05-21T04:42:14.830Z,11.48
2023-05-21T04:43:14.938Z,11.48
2023-05-21T04:44:15.462Z,11.49
2023-05-21T04:45:15.264Z,11.50
2023-05-21T04:46:15.369Z,11.52
2023-05-21T04:47:15.557Z,11.53
2023-05-21T04:48:15.611Z,11.55
2023-05-21T04:49:15.716Z,11.56
2023-05-21T04:50:15.837Z,11.56
2023-05-21T04:51:15.993Z,11.56
2023-05-21T04:52:16.122Z,11.56
2023-05-21T04:53:16.221Z,11.57
2023-05-21T04:54:16.337Z,11.57
2023-05-21T04:55:16.441Z,11.58
2023-05-21T04:56:16.557Z,11.58
2023-05-21T04:57:16.682Z,11.59
2023-05-21T04:58:16.794Z,11.59
2023-05-21T04:59:16.977Z,11.58
2023-05-21T05:00:17.073Z,11.58
2023-05-21T05:01:17.144Z,11.59
2023-05-21T05:02:17.258Z,11.59
2023-05-21T05:03:17.517Z,11.59
2023-05-21T05:04:17.491Z,11.58
2023-05-21T05:05:17.621Z,11.58
2023-05-21T05:06:17.779Z,11.57
2023-05-21T05:07:17.883Z,11.54
2023-05-21T05:08:17.986Z,11.51
2023-05-21T05:09:18.178Z,11.49
2023-05-21T05:10:18.276Z,11.48
2023-05-21T05:11:18.417Z,11.48
2023-05-21T05:12:18.544Z,11.50
2023-05-21T05:13:18.634Z,11.52
2023-05-21T05:14:18.734Z,11.55
2023-05-21T05:15:18.866Z,11.57
2023-05-21T05:16:18.983Z,11.58
2023-05-21T05:17:19.090Z,11.60
2023-05-21T05:18:19.232Z,11.62
2023-05-21T05:19:19.374Z,11.64
2023-05-21T05:20:19.501Z,11.66
2023-05-21T05:21:19.650Z,11.68
2023-05-21T05:22:19.841Z,11.70
2023-05-21T05:23:19.891Z,11.71
2023-05-21T05:24:20.009Z,11.72
2023-05-21T05:25:20.113Z,11.72
2023-05-21T05:26:20.205Z,11.72
2023-05-21T05:27:20.315Z,11.72
2023-05-21T05:28:20.454Z,11.72
2023-05-21T05:29:20.608Z,11.72
2023-05-21T05:30:20.655Z,11.72
2023-05-21T05:31:20.818Z,11.71
2023-05-21T05:32:20.910Z,11.71
2023-05-21T05:33:21.018Z,11.72
2023-05-21T05:34:21.099Z,11.73
2023-05-21T05:35:21.236Z,11.75
2023-05-21T05:36:21.398Z,11.77
2023-05-21T05:37:21.555Z,11.81
2023-05-21T05:38:21.666Z,11.84
2023-05-21T05:39:21.770Z,11.86
2023-05-21T05:40:21.881Z,11.87
2023-05-21T05:41:21.992Z,11.87
2023-05-21T05:42:22.164Z,11.88
2023-05-21T05:43:22.247Z,11.88
2023-05-21T05:44:22.411Z,11.90
2023-05-21T05:45:22.676Z,11.91
2023-05-21T05:46:22.785Z,11.94
2023-05-21T05:47:22.824Z,11.96
2023-05-21T05:48:22.945Z,11.98
2023-05-21T05:49:23.057Z,12.01
2023-05-21T05:50:23.219Z,12.03
2023-05-21T05:51:23.379Z,12.03
2023-05-21T05:52:23.458Z,12.04
2023-05-21T05:53:23.589Z,12.06
2023-05-21T05:54:23.727Z,12.08
2023-05-21T05:55:23.837Z,12.10
2023-05-21T05:56:23.967Z,12.12
2023-05-21T05:57:24.075Z,12.13
2023-05-21T05:58:24.183Z,12.12
2023-05-21T05:59:24.440Z,12.11
2023-05-21T06:00:24.440Z,12.09
2023-05-21T06:01:24.607Z,12.09
2023-05-21T06:02:24.785Z,12.09
2023-05-21T06:03:24.997Z,12.10
2023-05-21T06:04:24.988Z,12.13
2023-05-21T06:05:25.245Z,12.17
2023-05-21T06:06:25.532Z,12.21
2023-05-21T06:07:25.413Z,12.26
2023-05-21T06:08:25.525Z,12.29
2023-05-21T06:09:25.702Z,12.32
2023-05-21T06:10:25.766Z,12.33
2023-05-21T06:11:25.911Z,12.34
2023-05-21T06:12:26.007Z,12.38
2023-05-21T06:13:26.155Z,12.43
2023-05-21T06:14:26.259Z,12.48
2023-05-21T06:15:26.355Z,12.53
2023-05-21T06:16:26.694Z,12.58
2023-05-21T06:17:26.657Z,12.64
2023-05-21T06:18:26.769Z,12.70
2023-05-21T06:19:26.938Z,12.76
2023-05-21T06:20:26.974Z,12.82
2023-05-21T06:21:27.263Z,12.90
2023-05-21T06:22:27.293Z,12.97
2023-05-21T06:23:27.392Z,13.04
2023-05-21T06:24:27.558Z,13.09
2023-05-21T06:25:27.722Z,13.14
2023-05-21T06:26:27.844Z,13.18
2023-05-21T06:27:27.895Z,13.25
2023-05-21T06:28:28.079Z,13.34
2023-05-21T06:29:28.193Z,13.44
2023-05-21T06:30:28.282Z,13.56
2023-05-21T06:31:28.422Z,13.72
2023-05-21T06:32:28.716Z,13.88
2023-05-21T06:33:28.866Z,14.04
2023-05-21T06:34:28.809Z,14.20
2023-05-21T06:35:28.976Z,14.35
2023-05-21T06:36:29.051Z,14.48
2023-05-21T06:37:29.185Z,14.58
2023-05-21T06:38:29.293Z,14.62
2023-05-21T06:39:29.391Z,14.66
2023-05-21T06:40:29.548Z,14.71
2023-05-21T06:41:29.636Z,14.77
2023-05-21T06:42:29.791Z,14.86
2023-05-21T06:43:29.915Z,14.95
2023-05-21T06:44:29.975Z,15.03
2023-05-21T06:45:31.710Z,15.11
2023-05-21T06:46:30.272Z,15.19
2023-05-21T06:47:30.350Z,15.27
2023-05-21T06:48:30.498Z,15.35
2023-05-21T06:49:30.534Z,15.43
2023-05-21T06:50:30.661Z,15.49
2023-05-21T06:51:30.790Z,15.53
2023-05-21T06:52:30.902Z,15.55
2023-05-21T06:53:31.031Z,15.56
2023-05-21T06:54:31.251Z,15.56
2023-05-21T06:55:31.248Z,15.57
2023-05-21T06:56:31.397Z,15.56
2023-05-21T06:57:31.497Z,15.53
2023-05-21T06:58:31.589Z,15.49
2023-05-21T06:59:31.728Z,15.46
2023-05-21T07:00:31.887Z,15.44
2023-05-21T07:01:32.025Z,15.41
2023-05-21T07:02:32.262Z,15.40
2023-05-21T07:03:32.490Z,15.41
2023-05-21T07:04:32.459Z,15.40
2023-05-21T07:05:32.515Z,15.38
2023-05-21T07:06:32.611Z,15.37
2023-05-21T07:07:32.742Z,15.36
2023-05-21T07:08:32.846Z,15.37
2023-05-21T07:09:32.978Z,15.35
2023-05-21T07:10:33.131Z,15.33
2023-05-21T07:11:33.217Z,15.32
2023-05-21T07:12:33.372Z,15.32
2023-05-21T07:13:33.463Z,15.33
2023-05-21T07:14:33.672Z,15.36
2023-05-21T07:15:33.778Z,15.38
2023-05-21T07:16:33.890Z,15.39
2023-05-21T07:17:34.195Z,15.41
2023-05-21T07:18:34.143Z,15.41
2023-05-21T07:19:34.274Z,15.42
2023-05-21T07:20:34.380Z,15.44
2023-05-21T07:21:34.462Z,15.45
2023-05-21T07:22:34.559Z,15.45
2023-05-21T07:23:34.755Z,15.46
2023-05-21T07:24:34.836Z,15.49
2023-05-21T07:25:35.300Z,15.52
2023-05-21T07:26:35.075Z,15.57
2023-05-21T07:27:35.181Z,15.62
2023-05-21T07:28:35.331Z,15.67
2023-05-21T07:29:35.448Z,15.72
2023-05-21T07:30:35.571Z,15.76
2023-05-21T07:31:35.747Z,15.81
2023-05-21T07:32:35.880Z,15.87
2023-05-21T07:33:35.900Z,15.94
2023-05-21T07:34:36.002Z,15.97
2023-05-21T07:35:36.424Z,15.97
2023-05-21T07:36:36.291Z,15.94
2023-05-21T07:37:36.427Z,15.94
2023-05-21T07:38:36.509Z,15.93
2023-05-21T07:39:36.600Z,15.91
2023-05-21T07:40:36.767Z,15.90
2023-05-21T07:41:36.922Z,15.93
2023-05-21T07:42:37.026Z,16.00
2023-05-21T07:43:37.140Z,16.09
2023-05-21T07:44:37.281Z,16.15
2023-05-21T07:45:37.837Z,16.16
2023-05-21T07:46:37.547Z,16.17
2023-05-21T07:47:37.671Z,16.21
2023-05-21T07:48:37.763Z,16.26
2023-05-21T07:49:37.906Z,16.29
2023-05-21T07:50:38.003Z,16.31
2023-05-21T07:51:38.110Z,16.32
2023-05-21T07:52:38.327Z,16.31
2023-05-21T07:53:38.454Z,16.30
2023-05-21T07:54:38.560Z,16.31
2023-05-21T07:55:38.783Z,16.33
2023-05-21T07:56:38.774Z,16.38
2023-05-21T07:57:38.963Z,16.43
2023-05-21T07:58:39.064Z,16.48
2023-05-21T07:59:39.224Z,16.51
2023-05-21T08:00:39.340Z,16.54
2023-05-21T08:01:39.450Z,16.57
2023-05-21T08:02:39.645Z,16.62
2023-05-21T08:03:39.831Z,16.68
2023-05-21T08:04:41.304Z,16.75
2023-05-21T08:05:39.963Z,16.86
2023-05-21T08:06:40.050Z,16.98
2023-05-21T08:07:40.221Z,17.12
2023-05-21T08:08:40.297Z,17.26
2023-05-21T08:09:40.414Z,17.38
2023-05-21T08:10:40.522Z,17.49
2023-05-21T08:11:40.666Z,17.55
2023-05-21T08:12:40.865Z,17.58
2023-05-21T08:13:40.956Z,17.61
2023-05-21T08:14:41.067Z,17.57
2023-05-21T08:15:41.155Z,17.52
2023-05-21T08:16:41.358Z,17.49
2023-05-21T08:17:41.560Z,17.50
2023-05-21T08:18:41.602Z,17.52
2023-05-21T08:19:41.698Z,17.55
2023-05-21T08:20:41.790Z,17.56
2023-05-21T08:21:41.951Z,17.54
2023-05-21T08:22:42.048Z,17.55
2023-05-21T08:23:42.216Z,17.58
2023-05-21T08:24:42.274Z,17.61
2023-05-21T08:25:42.366Z,17.66
2023-05-21T08:26:42.510Z,17.69
2023-05-21T08:27:42.663Z,17.73
2023-05-21T08:28:42.802Z,17.76
2023-05-21T08:29:42.903Z,17.79
2023-05-21T08:30:42.948Z,17.83
2023-05-21T08:31:43.110Z,17.90
2023-05-21T08:32:43.224Z,17.96
2023-05-21T08:33:43.449Z,17.97
2023-05-21T08:34:43.744Z,17.92
2023-05-21T08:35:43.655Z,17.87
2023-05-21T08:36:43.630Z,17.87
2023-05-21T08:37:43.931Z,17.91
2023-05-21T08:38:43.991Z,17.98
2023-05-21T08:39:43.971Z,18.08
2023-05-21T08:40:44.083Z,18.23
2023-05-21T08:41:44.201Z,18.42
2023-05-21T08:42:44.295Z,18.61
2023-05-21T08:43:44.445Z,18.75
2023-05-21T08:44:44.622Z,18.84
2023-05-21T08:45:44.793Z,18.93
2023-05-21T08:46:44.971Z,19.03
2023-05-21T08:47:45.023Z,19.13
2023-05-21T08:48:45.309Z,19.24
2023-05-21T08:49:45.223Z,19.36
2023-05-21T08:50:45.890Z,19.49
2023-05-21T08:51:45.984Z,19.59
2023-05-21T08:52:45.690Z,19.64
2023-05-21T08:53:45.880Z,19.66
2023-05-21T08:54:45.928Z,19.69
2023-05-21T08:55:46.180Z,19.68
2023-05-21T08:56:46.163Z,19.62
2023-05-21T08:57:46.775Z,19.55
2023-05-21T08:58:46.547Z,19.50
2023-05-21T08:59:46.520Z,19.44
2023-05-21T09:00:46.741Z,19.38
2023-05-21T09:01:46.833Z,19.33
2023-05-21T09:02:46.984Z,19.34
2023-05-21T09:03:47.111Z,19.40
2023-05-21T09:04:47.115Z,19.41
2023-05-21T09:05:47.649Z,19.38
2023-05-21T09:06:47.316Z,19.39
2023-05-21T09:07:47.462Z,19.45
2023-05-21T09:08:47.874Z,19.50
2023-05-21T09:09:47.758Z,19.53
2023-05-21T09:10:47.813Z,19.52
2023-05-21T09:11:48.123Z,19.50
2023-05-21T09:12:48.185Z,19.52
2023-05-21T09:13:48.142Z,19.59
2023-05-21T09:14:48.470Z,19.70
2023-05-21T09:15:48.511Z,19.73
2023-05-21T09:16:48.977Z,19.72
2023-05-21T09:17:48.944Z,19.70
2023-05-21T09:18:49.152Z,19.71
2023-05-21T09:19:48.960Z,19.74
2023-05-21T09:20:49.019Z,19.78
2023-05-21T09:21:49.412Z,19.84
2023-05-21T09:22:49.418Z,19.88
2023-05-21T09:23:49.458Z,19.85
2023-05-21T09:24:49.544Z,19.72
2023-05-21T09:25:49.722Z,19.53
2023-05-21T09:26:49.878Z,19.40
2023-05-21T09:27:50.065Z,19.37
2023-05-21T09:28:50.230Z,19.44
2023-05-21T09:29:50.220Z,19.56
2023-05-21T09:30:50.343Z,19.68
2023-05-21T09:31:50.724Z,19.79
2023-05-21T09:32:50.770Z,19.90
2023-05-21T09:33:50.702Z,20.05
2023-05-21T09:34:50.829Z,20.23
2023-05-21T09:35:50.948Z,20.45
2023-05-21T09:36:51.128Z,20.66
2023-05-21T09:37:51.218Z,20.79
2023-05-21T09:38:51.326Z,20.86
2023-05-21T09:39:51.426Z,20.86
2023-05-21T09:40:51.612Z,20.82
2023-05-21T09:41:51.735Z,20.80
2023-05-21T09:42:51.859Z,20.84
2023-05-21T09:43:51.972Z,20.91
2023-05-21T09:44:52.091Z,21.01
2023-05-21T09:45:52.281Z,21.14
2023-05-21T09:46:52.504Z,21.19
2023-05-21T09:47:52.460Z,21.14
2023-05-21T09:48:52.552Z,21.00
2023-05-21T09:49:52.654Z,20.85
2023-05-21T09:50:52.772Z,20.76
2023-05-21T09:51:52.893Z,20.76
2023-05-21T09:52:53.160Z,20.81
2023-05-21T09:53:53.121Z,20.78
2023-05-21T09:54:53.238Z,20.70
2023-05-21T09:55:53.328Z,20.63
2023-05-21T09:56:53.503Z,20.58
2023-05-21T09:57:53.639Z,20.53
2023-05-21T09:58:53.731Z,20.46
2023-05-21T09:59:53.830Z,20.40
2023-05-21T10:00:53.934Z,20.37
2023-05-21T10:01:54.130Z,20.40
2023-05-21T10:02:54.281Z,20.49
2023-05-21T10:03:54.340Z,20.66
2023-05-21T10:04:54.514Z,20.86
2023-05-21T10:05:54.536Z,20.94
2023-05-21T10:06:54.622Z,20.89
2023-05-21T10:07:54.824Z,20.80
2023-05-21T10:08:55.058Z,20.67
2023-05-21T10:09:55.080Z,20.55
2023-05-21T10:10:55.171Z,20.48
2023-05-21T10:11:55.263Z,20.50
2023-05-21T10:12:55.479Z,20.61
2023-05-21T10:13:55.564Z,20.76
2023-05-21T10:14:55.726Z,20.94
2023-05-21T10:15:55.886Z,21.13
2023-05-21T10:16:55.956Z,21.28
2023-05-21T10:17:56.136Z,21.36
2023-05-21T10:18:56.302Z,21.38
2023-05-21T10:19:56.328Z,21.38
2023-05-21T10:20:56.432Z,21.41
2023-05-21T10:21:56.539Z,21.49
2023-05-21T10:22:56.665Z,21.58
2023-05-21T10:23:56.809Z,21.64
2023-05-21T10:24:56.899Z,21.68
2023-05-21T10:25:57.031Z,21.69
2023-05-21T10:26:57.185Z,21.66
2023-05-21T10:27:57.318Z,21.69
2023-05-21T10:28:57.678Z,21.80
2023-05-21T10:29:57.532Z,21.89
2023-05-21T10:30:57.714Z,21.96
2023-05-21T10:31:57.843Z,22.06
2023-05-21T10:32:58.164Z,22.18
2023-05-21T10:33:58.091Z,22.32
2023-05-21T10:34:59.415Z,22.48
2023-05-21T10:35:58.264Z,22.51
2023-05-21T10:36:58.457Z,22.42
2023-05-21T10:37:58.619Z,22.32
2023-05-21T10:38:58.761Z,22.31
2023-05-21T10:39:58.806Z,22.37
2023-05-21T10:40:58.922Z,22.43
2023-05-21T10:41:59.327Z,22.39
2023-05-21T10:42:59.178Z,22.13
2023-05-21T10:43:59.376Z,21.74
2023-05-21T10:44:59.469Z,21.49
2023-05-21T10:45:59.596Z,21.41
2023-05-21T10:46:59.710Z,21.44
2023-05-21T10:47:59.854Z,21.54
2023-05-21T10:49:00.033Z,21.64
2023-05-21T10:50:00.050Z,21.74
2023-05-21T10:51:00.149Z,21.88
2023-05-21T10:52:00.278Z,21.95
2023-05-21T10:53:00.386Z,22.00
2023-05-21T10:54:00.493Z,22.12
2023-05-21T10:55:00.632Z,22.24
2023-05-21T10:56:00.782Z,22.34
2023-05-21T10:57:00.901Z,22.44
2023-05-21T10:58:01.028Z,22.51
2023-05-21T10:59:01.116Z,22.54
2023-05-21T11:00:01.217Z,22.52
2023-05-21T11:01:01.361Z,22.40
2023-05-21T11:02:01.514Z,22.24
2023-05-21T11:03:01.652Z,22.14
2023-05-21T11:04:01.723Z,22.11
2023-05-21T11:05:01.850Z,22.11
2023-05-21T11:06:02.010Z,22.07
2023-05-21T11:07:02.120Z,22.01
2023-05-21T11:08:02.284Z,21.98
2023-05-21T11:09:02.411Z,21.98
2023-05-21T11:10:02.512Z,21.99
2023-05-21T11:11:02.649Z,21.97
2023-05-21T11:12:02.756Z,21.94
2023-05-21T11:13:02.853Z,21.89
2023-05-21T11:14:02.987Z,21.85
2023-05-21T11:15:03.089Z,21.81
2023-05-21T11:16:03.213Z,21.78
2023-05-21T11:17:03.423Z,21.76
2023-05-21T11:18:03.532Z,21.76
2023-05-21T11:19:03.676Z,21.82
2023-05-21T11:20:03.734Z,21.92
2023-05-21T11:21:03.943Z,22.05
2023-05-21T11:22:03.990Z,22.23
2023-05-21T11:23:04.081Z,22.37
2023-05-21T11:24:04.172Z,22.45
2023-05-21T11:25:04.274Z,22.48
2023-05-21T11:26:04.439Z,22.47
2023-05-21T11:27:04.527Z,22.43
2023-05-21T11:28:04.708Z,22.43
2023-05-21T11:29:04.843Z,22.47
2023-05-21T11:30:04.895Z,22.51
2023-05-21T11:31:05.027Z,22.46
2023-05-21T11:32:05.194Z,22.41
2023-05-21T11:33:05.302Z,22.47
2023-05-21T11:34:05.423Z,22.57
2023-05-21T11:35:05.575Z,22.66
2023-05-21T11:36:05.710Z,22.68
2023-05-21T11:37:05.881Z,22.65
2023-05-21T11:38:06.026Z,22.57
2023-05-21T11:39:06.120Z,22.47
2023-05-21T11:40:06.218Z,22.32
2023-05-21T11:41:06.390Z,22.14
2023-05-21T11:42:06.507Z,22.01
2023-05-21T11:43:06.687Z,21.96
2023-05-21T11:44:06.740Z,21.99
2023-05-21T11:45:06.896Z,22.10
2023-05-21T11:46:07.054Z,22.24
2023-05-21T11:47:07.203Z,22.33
2023-05-21T11:48:07.356Z,22.41
2023-05-21T11:49:07.497Z,22.54
2023-05-21T11:50:07.565Z,22.68
2023-05-21T11:51:07.702Z,22.80
2023-05-21T11:52:07.884Z,22.88
2023-05-21T11:53:08.013Z,22.89
2023-05-21T11:54:08.092Z,22.93
2023-05-21T11:55:08.242Z,23.01
2023-05-21T11:56:08.380Z,23.09
2023-05-21T11:57:08.542Z,23.12
2023-05-21T11:58:08.687Z,23.16
2023-05-21T11:59:08.788Z,23.22
2023-05-21T12:00:08.920Z,23.31
2023-05-21T12:01:09.050Z,23.39
2023-05-21T12:02:09.220Z,23.42
2023-05-21T12:03:09.383Z,23.40
2023-05-21T12:04:09.494Z,23.35
2023-05-21T12:05:10.243Z,23.33
2023-05-21T12:06:09.767Z,23.36
2023-05-21T12:07:09.836Z,23.39
2023-05-21T12:08:10.024Z,23.32
2023-05-21T12:09:10.094Z,23.20
2023-05-21T12:10:10.199Z,23.17
2023-05-21T12:11:10.337Z,23.18
2023-05-21T12:12:10.528Z,23.14
2023-05-21T12:13:10.598Z,23.07
2023-05-21T12:14:10.825Z,22.99
2023-05-21T12:15:11.469Z,22.96
2023-05-21T12:16:10.992Z,23.01
2023-05-21T12:17:11.134Z,23.06
2023-05-21T12:18:11.403Z,23.06
2023-05-21T12:19:11.381Z,23.00
2023-05-21T12:20:11.503Z,22.90
2023-05-21T12:21:12.690Z,22.77
2023-05-21T12:22:11.752Z,22.70
2023-05-21T12:23:11.961Z,22.73
2023-05-21T12:24:12.028Z,22.82
2023-05-21T12:25:12.161Z,22.90
2023-05-21T12:26:12.314Z,22.96
2023-05-21T12:27:12.402Z,23.04
2023-05-21T12:28:12.534Z,23.18
2023-05-21T12:29:12.688Z,23.32
2023-05-21T12:30:12.853Z,23.45
2023-05-21T12:31:12.924Z,23.59
2023-05-21T12:32:13.086Z,23.72
2023-05-21T12:33:13.154Z,23.83
2023-05-21T12:34:13.354Z,23.95
2023-05-21T12:35:13.473Z,24.01
2023-05-21T12:36:13.582Z,24.02
2023-05-21T12:37:13.736Z,24.01
2023-05-21T12:38:13.836Z,24.03
2023-05-21T12:39:14.000Z,24.06
2023-05-21T12:40:14.088Z,24.04
2023-05-21T12:41:14.357Z,24.01
2023-05-21T12:42:14.338Z,23.96
2023-05-21T12:43:14.467Z,23.87
2023-05-21T12:44:14.615Z,23.76
2023-05-21T12:45:14.774Z,23.71
2023-05-21T12:46:15.020Z,23.75
2023-05-21T12:47:15.049Z,23.84
2023-05-21T12:48:15.132Z,23.94
2023-05-21T12:49:15.268Z,24.03
2023-05-21T12:50:15.412Z,24.06
2023-05-21T12:51:15.602Z,24.06
2023-05-21T12:52:15.675Z,24.10
2023-05-21T12:53:15.842Z,24.13
2023-05-21T12:54:16.007Z,24.15